createdAt,value
2022-11-16T00:00:06.068Z,947.7
2022-11-16T00:01:08.136Z,947.7
2022-11-16T00:02:10.250Z,947.7
2022-11-16T00:03:12.057Z,947.7
2022-11-16T00:04:13.687Z,947.7
2022-11-16T00:05:15.615Z,947.7
2022-11-16T00:06:17.234Z,947.7
2022-11-16T00:07:19.043Z,947.7
2022-11-16T00:08:20.996Z,947.7
2022-11-16T00:09:22.707Z,947.7
2022-11-16T00:10:24.341Z,947.7
2022-11-16T00:11:26.131Z,947.7
2022-11-16T00:12:27.955Z,947.7
2022-11-16T00:13:29.700Z,947.7
2022-11-16T00:14:31.449Z,947.7
2022-11-16T00:15:33.202Z,947.7
2022-11-16T00:16:34.859Z,947.7
2022-11-16T00:17:36.531Z,947.7
2022-11-16T00:18:38.334Z,947.8
2022-11-16T00:19:40.016Z,947.7
2022-11-16T00:20:41.825Z,947.7
2022-11-16T00:21:43.505Z,947.8
2022-11-16T00:22:45.228Z,947.7
2022-11-16T00:23:47.074Z,947.7
2022-11-16T00:24:48.642Z,947.7
2022-11-16T00:25:50.183Z,947.7
2022-11-16T00:26:51.905Z,947.7
2022-11-16T00:27:53.451Z,947.6
2022-11-16T00:28:55.095Z,947.6
2022-11-16T00:29:56.842Z,947.6
2022-11-16T00:30:58.616Z,947.6
2022-11-16T00:32:00.456Z,947.6
2022-11-16T00:33:02.205Z,947.5
2022-11-16T00:34:03.867Z,947.6
2022-11-16T00:35:05.576Z,947.5
2022-11-16T00:36:07.457Z,947.5
2022-11-16T00:37:09.250Z,947.6
2022-11-16T00:38:10.945Z,947.6
2022-11-16T00:39:12.592Z,947.6
2022-11-16T00:40:14.319Z,947.5
2022-11-16T00:41:16.006Z,947.6
2022-11-16T00:42:17.743Z,947.6
2022-11-16T00:43:19.459Z,947.6
2022-11-16T00:44:20.987Z,947.6
2022-11-16T00:45:22.774Z,947.5
2022-11-16T00:46:24.415Z,947.5
2022-11-16T00:47:26.064Z,947.5
2022-11-16T00:48:27.705Z,947.5
2022-11-16T00:49:29.506Z,947.5
2022-11-16T00:50:31.310Z,947.4
2022-11-16T00:51:33.135Z,947.4
2022-11-16T00:52:34.824Z,947.3
2022-11-16T00:53:36.368Z,947.3
2022-11-16T00:54:38.172Z,947.3
2022-11-16T00:55:39.922Z,947.4
2022-11-16T00:56:41.666Z,947.4
2022-11-16T00:57:43.314Z,947.3
2022-11-16T00:58:45.132Z,947.3
2022-11-16T00:59:47.012Z,947.3
2022-11-16T01:00:48.761Z,947.3
2022-11-16T01:01:50.638Z,947.3
2022-11-16T01:02:52.377Z,947.3
2022-11-16T01:03:54.125Z,947.2
2022-11-16T01:04:55.716Z,947.2
2022-11-16T01:05:57.419Z,947.2
2022-11-16T01:06:59.490Z,947.2
2022-11-16T01:08:01.219Z,947.2
2022-11-16T01:09:02.951Z,947.2
2022-11-16T01:10:04.873Z,947.2
2022-11-16T01:11:06.668Z,947.2
2022-11-16T01:12:08.313Z,947.1
2022-11-16T01:13:10.038Z,947.1
2022-11-16T01:14:11.894Z,947.1
2022-11-16T01:15:13.636Z,947.1
2022-11-16T01:16:15.300Z,947.1
2022-11-16T01:17:16.948Z,947.1
2022-11-16T01:18:18.572Z,947.1
2022-11-16T01:19:20.235Z,947.1
2022-11-16T01:20:21.972Z,947
2022-11-16T01:21:23.742Z,947
2022-11-16T01:22:25.488Z,947
2022-11-16T01:23:27.072Z,947
2022-11-16T01:24:28.884Z,947
2022-11-16T01:25:30.704Z,947
2022-11-16T01:26:32.249Z,946.9
2022-11-16T01:27:33.916Z,946.9
2022-11-16T01:28:37.108Z,947
2022-11-16T01:29:39.046Z,947
2022-11-16T01:30:40.592Z,947
2022-11-16T01:31:42.320Z,947.1
2022-11-16T01:32:43.948Z,947
2022-11-16T01:33:45.522Z,947
2022-11-16T01:34:47.164Z,947
2022-11-16T01:35:48.895Z,947
2022-11-16T01:36:50.539Z,947
2022-11-16T01:37:52.312Z,947
2022-11-16T01:38:54.038Z,947
2022-11-16T01:39:55.808Z,947
2022-11-16T01:40:57.520Z,947
2022-11-16T01:41:59.197Z,947
2022-11-16T01:43:01.027Z,947
2022-11-16T01:44:02.773Z,947
2022-11-16T01:45:04.540Z,946.9
2022-11-16T01:46:06.192Z,946.9
2022-11-16T01:47:08.117Z,946.9
2022-11-16T01:48:10.035Z,946.9
2022-11-16T01:49:11.887Z,946.9
2022-11-16T01:50:13.686Z,947
2022-11-16T01:51:15.283Z,947
2022-11-16T01:52:17.164Z,947
2022-11-16T01:53:19.013Z,946.9
2022-11-16T01:54:20.636Z,947
2022-11-16T01:55:22.511Z,946.9
2022-11-16T01:56:24.225Z,946.9
2022-11-16T01:57:25.864Z,947
2022-11-16T01:58:27.466Z,946.9
2022-11-16T01:59:29.297Z,946.9
2022-11-16T02:00:30.840Z,946.9
2022-11-16T02:01:32.842Z,946.9
2022-11-16T02:02:34.538Z,946.9
2022-11-16T02:03:36.101Z,946.9
2022-11-16T02:04:37.939Z,946.9
2022-11-16T02:05:39.645Z,947
2022-11-16T02:06:41.326Z,946.9
2022-11-16T02:07:43.304Z,946.9
2022-11-16T02:08:45.132Z,946.8
2022-11-16T02:09:46.877Z,946.8
2022-11-16T02:10:48.518Z,946.9
2022-11-16T02:11:50.185Z,946.9
2022-11-16T02:12:51.951Z,946.9
2022-11-16T02:13:53.763Z,946.8
2022-11-16T02:14:55.509Z,946.8
2022-11-16T02:15:57.073Z,946.8
2022-11-16T02:16:58.699Z,946.8
2022-11-16T02:18:00.365Z,946.8
2022-11-16T02:19:01.980Z,946.7
2022-11-16T02:20:03.635Z,946.7
2022-11-16T02:21:05.177Z,946.7
2022-11-16T02:22:06.817Z,946.7
2022-11-16T02:23:08.491Z,946.6
2022-11-16T02:24:10.138Z,946.6
2022-11-16T02:25:11.674Z,946.7
2022-11-16T02:26:13.321Z,946.7
2022-11-16T02:27:14.967Z,946.7
2022-11-16T02:28:16.521Z,946.7
2022-11-16T02:29:18.152Z,946.7
2022-11-16T02:30:19.721Z,946.7
2022-11-16T02:31:21.444Z,946.6
2022-11-16T02:32:23.244Z,946.6
2022-11-16T02:33:24.840Z,946.6
2022-11-16T02:34:26.536Z,946.7
2022-11-16T02:35:28.129Z,946.7
2022-11-16T02:36:29.684Z,946.6
2022-11-16T02:37:31.433Z,946.7
2022-11-16T02:38:34.536Z,946.7
2022-11-16T02:39:36.940Z,946.6
2022-11-16T02:40:38.550Z,946.6
2022-11-16T02:41:40.099Z,946.6
2022-11-16T02:42:41.779Z,946.6
2022-11-16T02:43:43.625Z,946.6
2022-11-16T02:44:45.293Z,946.6
2022-11-16T02:45:46.937Z,946.6
2022-11-16T02:46:48.559Z,946.5
2022-11-16T02:47:50.115Z,946.6
2022-11-16T02:48:51.849Z,946.6
2022-11-16T02:49:53.370Z,946.5
2022-11-16T02:50:55.140Z,946.5
2022-11-16T02:51:56.719Z,946.6
2022-11-16T02:52:58.326Z,946.6
2022-11-16T02:54:00.207Z,946.5
2022-11-16T02:55:02.030Z,946.5
2022-11-16T02:56:03.777Z,946.5
2022-11-16T02:57:05.319Z,946.5
2022-11-16T02:58:09.933Z,946.6
2022-11-16T02:59:18.030Z,946.5
2022-11-16T03:00:19.615Z,946.5
2022-11-16T03:01:21.536Z,946.5
2022-11-16T03:02:23.465Z,946.5
2022-11-16T03:03:25.152Z,946.5
2022-11-16T03:04:26.756Z,946.5
2022-11-16T03:05:28.414Z,946.5
2022-11-16T03:06:30.060Z,946.5
2022-11-16T03:07:31.891Z,946.5
2022-11-16T03:08:34.715Z,946.5
2022-11-16T03:09:37.067Z,946.5
2022-11-16T03:10:38.898Z,946.5
2022-11-16T03:11:40.555Z,946.4
2022-11-16T03:12:42.309Z,946.4
2022-11-16T03:13:43.855Z,946.4
2022-11-16T03:14:45.445Z,946.4
2022-11-16T03:15:47.245Z,946.4
2022-11-16T03:16:48.885Z,946.4
2022-11-16T03:17:50.530Z,946.4
2022-11-16T03:18:52.277Z,946.4
2022-11-16T03:19:53.937Z,946.4
2022-11-16T03:20:55.534Z,946.3
2022-11-16T03:21:57.197Z,946.3
2022-11-16T03:22:58.841Z,946.3
2022-11-16T03:24:00.588Z,946.3
2022-11-16T03:25:02.367Z,946.3
2022-11-16T03:26:04.184Z,946.4
2022-11-16T03:27:05.777Z,946.3
2022-11-16T03:28:07.402Z,946.3
2022-11-16T03:29:09.008Z,946.3
2022-11-16T03:30:10.551Z,946.3
2022-11-16T03:31:12.293Z,946.3
2022-11-16T03:32:14.058Z,946.3
2022-11-16T03:33:15.619Z,946.2
2022-11-16T03:34:17.352Z,946.3
2022-11-16T03:35:19.012Z,946.3
2022-11-16T03:36:20.555Z,946.2
2022-11-16T03:37:22.201Z,946.3
2022-11-16T03:38:23.741Z,946.2
2022-11-16T03:39:25.440Z,946.3
2022-11-16T03:40:27.244Z,946.2
2022-11-16T03:41:28.991Z,946.3
2022-11-16T03:42:30.596Z,946.3
2022-11-16T03:43:32.283Z,946.3
2022-11-16T03:44:34.029Z,946.3
2022-11-16T03:45:35.668Z,946.3
2022-11-16T03:46:37.261Z,946.4
2022-11-16T03:47:39.043Z,946.3
2022-11-16T03:48:40.791Z,946.4
2022-11-16T03:49:42.332Z,946.3
2022-11-16T03:50:43.966Z,946.3
2022-11-16T03:51:45.544Z,946.3
2022-11-16T03:52:47.181Z,946.3
2022-11-16T03:53:48.811Z,946.3
2022-11-16T03:54:50.528Z,946.2
2022-11-16T03:55:52.228Z,946.3
2022-11-16T03:56:53.967Z,946.3
2022-11-16T03:57:55.699Z,946.3
2022-11-16T03:58:57.260Z,946.3
2022-11-16T03:59:58.912Z,946.3
2022-11-16T04:01:01.158Z,946.3
2022-11-16T04:02:03.100Z,946.2
2022-11-16T04:03:04.849Z,946.3
2022-11-16T04:04:06.509Z,946.3
2022-11-16T04:05:08.204Z,946.3
2022-11-16T04:06:09.909Z,946.2
2022-11-16T04:07:11.920Z,946.1
2022-11-16T04:08:13.713Z,946.1
2022-11-16T04:09:15.459Z,946.2
2022-11-16T04:10:17.049Z,946.1
2022-11-16T04:11:18.756Z,946.1
2022-11-16T04:12:20.495Z,946.1
2022-11-16T04:13:22.108Z,946.1
2022-11-16T04:14:23.651Z,946.1
2022-11-16T04:15:25.279Z,946.1
2022-11-16T04:16:29.903Z,946
2022-11-16T04:17:31.689Z,946
2022-11-16T04:18:34.290Z,946
2022-11-16T04:19:36.806Z,946
2022-11-16T04:20:38.352Z,945.9
2022-11-16T04:21:40.017Z,945.9
2022-11-16T04:22:41.745Z,945.9
2022-11-16T04:23:43.490Z,945.9
2022-11-16T04:24:45.072Z,945.9
2022-11-16T04:25:46.780Z,946
2022-11-16T04:26:48.550Z,946
2022-11-16T04:27:50.483Z,946
2022-11-16T04:28:52.159Z,946
2022-11-16T04:29:53.787Z,946
2022-11-16T04:30:55.445Z,946
2022-11-16T04:31:57.081Z,946.1
2022-11-16T04:32:58.812Z,946
2022-11-16T04:34:00.556Z,946
2022-11-16T04:35:02.229Z,946
2022-11-16T04:36:03.918Z,946
2022-11-16T04:37:05.520Z,945.9
2022-11-16T04:38:07.239Z,945.9
2022-11-16T04:39:08.975Z,946
2022-11-16T04:40:10.668Z,945.9
2022-11-16T04:41:12.380Z,945.9
2022-11-16T04:42:14.157Z,945.9
2022-11-16T04:43:16.081Z,945.9
2022-11-16T04:44:17.802Z,945.9
2022-11-16T04:45:19.450Z,945.9
2022-11-16T04:46:21.105Z,945.9
2022-11-16T04:47:22.740Z,945.8
2022-11-16T04:48:24.450Z,945.8
2022-11-16T04:49:26.001Z,945.9
2022-11-16T04:50:27.598Z,945.9
2022-11-16T04:51:29.453Z,945.9
2022-11-16T04:52:31.173Z,945.9
2022-11-16T04:53:32.974Z,945.9
2022-11-16T04:54:34.658Z,945.9
2022-11-16T04:55:36.445Z,945.9
2022-11-16T04:56:38.212Z,945.9
2022-11-16T04:57:39.879Z,945.9
2022-11-16T04:58:41.693Z,945.9
2022-11-16T04:59:43.558Z,945.9
2022-11-16T05:00:45.288Z,945.9
2022-11-16T05:01:47.172Z,945.9
2022-11-16T05:02:49.012Z,945.9
2022-11-16T05:03:50.622Z,945.8
2022-11-16T05:04:52.176Z,945.9
2022-11-16T05:05:53.919Z,945.8
2022-11-16T05:06:55.822Z,945.9
2022-11-16T05:07:57.684Z,945.8
2022-11-16T05:08:59.370Z,945.8
2022-11-16T05:10:01.116Z,945.8
2022-11-16T05:11:02.828Z,945.8
2022-11-16T05:12:04.609Z,945.8
2022-11-16T05:13:06.587Z,945.8
2022-11-16T05:14:08.230Z,945.8
2022-11-16T05:15:09.935Z,945.8
2022-11-16T05:16:11.680Z,945.8
2022-11-16T05:17:13.450Z,945.8
2022-11-16T05:18:15.118Z,945.8
2022-11-16T05:19:16.711Z,945.8
2022-11-16T05:20:18.505Z,945.8
2022-11-16T05:21:20.257Z,945.8
2022-11-16T05:22:21.896Z,945.8
2022-11-16T05:23:23.508Z,945.8
2022-11-16T05:24:25.134Z,945.8
2022-11-16T05:25:26.739Z,945.8
2022-11-16T05:26:28.562Z,945.8
2022-11-16T05:27:30.176Z,945.8
2022-11-16T05:28:32.789Z,945.8
2022-11-16T05:29:35.343Z,945.8
2022-11-16T05:30:36.894Z,945.8
2022-11-16T05:31:40.990Z,945.8
2022-11-16T05:32:42.737Z,945.8
2022-11-16T05:33:44.489Z,945.8
2022-11-16T05:34:46.196Z,945.8
2022-11-16T05:35:47.777Z,945.8
2022-11-16T05:36:49.647Z,945.8
2022-11-16T05:37:51.370Z,945.8
2022-11-16T05:38:56.820Z,945.8
2022-11-16T05:39:58.551Z,945.8
2022-11-16T05:41:00.221Z,945.8
2022-11-16T05:42:02.020Z,945.8
2022-11-16T05:43:03.841Z,945.8
2022-11-16T05:44:05.570Z,945.8
2022-11-16T05:45:07.317Z,945.8
2022-11-16T05:46:09.067Z,945.8
2022-11-16T05:47:10.681Z,945.8
2022-11-16T05:48:12.234Z,945.8
2022-11-16T05:49:13.857Z,945.8
2022-11-16T05:50:15.545Z,945.8
2022-11-16T05:51:17.288Z,945.8
2022-11-16T05:52:18.935Z,945.8
2022-11-16T05:53:20.656Z,945.8
2022-11-16T05:54:22.290Z,945.8
2022-11-16T05:55:24.083Z,945.9
2022-11-16T05:56:25.929Z,945.8
2022-11-16T05:57:27.750Z,945.9
2022-11-16T05:58:29.498Z,945.8
2022-11-16T05:59:31.274Z,945.8
2022-11-16T06:00:33.032Z,945.8
2022-11-16T06:01:34.605Z,945.9
2022-11-16T06:02:36.484Z,945.9
2022-11-16T06:03:38.473Z,945.9
2022-11-16T06:04:40.324Z,945.9
2022-11-16T06:05:42.155Z,945.9
2022-11-16T06:06:43.891Z,945.9
2022-11-16T06:07:45.454Z,945.9
2022-11-16T06:08:47.201Z,945.9
2022-11-16T06:09:48.953Z,945.9
2022-11-16T06:10:50.490Z,945.8
2022-11-16T06:11:52.436Z,945.8
2022-11-16T06:12:54.087Z,945.8
2022-11-16T06:13:55.793Z,945.8
2022-11-16T06:14:57.374Z,945.9
2022-11-16T06:16:00.441Z,945.9
2022-11-16T06:17:02.409Z,945.9
2022-11-16T06:18:04.139Z,945.9
2022-11-16T06:19:05.819Z,945.9
2022-11-16T06:20:07.651Z,945.9
2022-11-16T06:21:09.391Z,945.9
2022-11-16T06:22:11.199Z,945.8
2022-11-16T06:23:12.876Z,945.8
2022-11-16T06:24:14.543Z,945.9
2022-11-16T06:25:16.304Z,945.9
2022-11-16T06:26:17.938Z,945.8
2022-11-16T06:27:19.687Z,945.8
2022-11-16T06:28:21.343Z,945.8
2022-11-16T06:29:23.465Z,945.8
2022-11-16T06:30:25.219Z,945.9
2022-11-16T06:31:27.508Z,945.8
2022-11-16T06:32:29.456Z,945.9
2022-11-16T06:33:34.314Z,945.8
2022-11-16T06:34:36.100Z,945.8
2022-11-16T06:35:37.867Z,945.9
2022-11-16T06:36:39.608Z,945.9
2022-11-16T06:37:41.344Z,945.8
2022-11-16T06:38:43.002Z,945.8
2022-11-16T06:39:44.647Z,945.9
2022-11-16T06:40:46.383Z,945.9
2022-11-16T06:41:49.182Z,945.9
2022-11-16T06:42:51.613Z,945.9
2022-11-16T06:43:53.324Z,945.9
2022-11-16T06:44:54.896Z,945.9
2022-11-16T06:45:56.568Z,945.8
2022-11-16T06:46:58.783Z,945.8
2022-11-16T06:48:01.285Z,945.9
2022-11-16T06:49:02.922Z,945.9
2022-11-16T06:50:04.704Z,945.8
2022-11-16T06:51:06.743Z,945.8
2022-11-16T06:52:08.386Z,945.8
2022-11-16T06:53:09.940Z,945.8
2022-11-16T06:54:11.562Z,945.7
2022-11-16T06:55:13.165Z,945.8
2022-11-16T06:56:14.872Z,945.7
2022-11-16T06:57:16.760Z,945.8
2022-11-16T06:58:18.468Z,945.8
2022-11-16T06:59:20.357Z,945.8
2022-11-16T07:00:22.168Z,945.8
2022-11-16T07:01:24.100Z,945.8
2022-11-16T07:02:26.441Z,945.8
2022-11-16T07:03:28.488Z,945.8
2022-11-16T07:04:30.287Z,945.8
2022-11-16T07:05:31.841Z,945.8
2022-11-16T07:06:33.387Z,945.8
2022-11-16T07:07:35.317Z,945.8
2022-11-16T07:08:37.455Z,945.8
2022-11-16T07:09:39.063Z,945.7
2022-11-16T07:10:40.851Z,945.7
2022-11-16T07:11:42.694Z,945.7
2022-11-16T07:12:44.368Z,945.7
2022-11-16T07:13:46.052Z,945.7
2022-11-16T07:14:47.752Z,945.7
2022-11-16T07:15:49.586Z,945.7
2022-11-16T07:17:02.918Z,945.7
2022-11-16T07:18:11.445Z,945.7
2022-11-16T07:19:13.187Z,945.7
2022-11-16T07:20:14.843Z,945.7
2022-11-16T07:21:16.618Z,945.8
2022-11-16T07:22:18.298Z,945.7
2022-11-16T07:23:19.950Z,945.7
2022-11-16T07:24:21.715Z,945.7
2022-11-16T07:25:23.356Z,945.7
2022-11-16T07:26:25.009Z,945.7
2022-11-16T07:27:26.728Z,945.7
2022-11-16T07:28:32.003Z,945.7
2022-11-16T07:29:34.542Z,945.6
2022-11-16T07:30:36.275Z,945.6
2022-11-16T07:31:38.434Z,945.7
2022-11-16T07:32:40.486Z,945.6
2022-11-16T07:33:42.452Z,945.6
2022-11-16T07:34:44.416Z,945.6
2022-11-16T07:35:45.981Z,945.7
2022-11-16T07:36:47.786Z,945.7
2022-11-16T07:37:49.548Z,945.7
2022-11-16T07:38:51.102Z,945.6
2022-11-16T07:39:52.741Z,945.6
2022-11-16T07:40:54.365Z,945.5
2022-11-16T07:41:56.109Z,945.5
2022-11-16T07:42:57.778Z,945.5
2022-11-16T07:43:59.405Z,945.5
2022-11-16T07:45:01.154Z,945.5
2022-11-16T07:46:49.293Z,945.6
2022-11-16T07:47:51.051Z,945.6
2022-11-16T07:48:53.175Z,945.5
2022-11-16T07:49:54.849Z,945.5
2022-11-16T07:50:56.580Z,945.5
2022-11-16T07:51:58.355Z,945.5
2022-11-16T07:53:00.098Z,945.5
2022-11-16T07:54:01.752Z,945.5
2022-11-16T07:55:03.474Z,945.5
2022-11-16T07:56:05.084Z,945.5
2022-11-16T07:57:06.773Z,945.4
2022-11-16T07:58:08.533Z,945.5
2022-11-16T07:59:10.172Z,945.5
2022-11-16T08:00:11.707Z,945.5
2022-11-16T08:01:13.414Z,945.5
2022-11-16T08:02:15.348Z,945.5
2022-11-16T08:03:25.136Z,945.5
2022-11-16T08:04:26.913Z,945.5
2022-11-16T08:05:29.057Z,945.5
2022-11-16T08:06:30.662Z,945.5
2022-11-16T08:07:32.671Z,945.5
2022-11-16T08:08:35.932Z,945.5
2022-11-16T08:09:38.525Z,945.4
2022-11-16T08:10:40.413Z,945.5
2022-11-16T08:11:42.202Z,945.4
2022-11-16T08:12:43.861Z,945.4
2022-11-16T08:13:45.691Z,945.4
2022-11-16T08:14:48.277Z,945.4
2022-11-16T08:15:49.897Z,945.4
2022-11-16T08:16:51.669Z,945.4
2022-11-16T08:17:53.465Z,945.3
2022-11-16T08:18:55.248Z,945.3
2022-11-16T08:19:57.103Z,945.3
2022-11-16T08:20:59.156Z,945.3
2022-11-16T08:22:00.803Z,945.3
2022-11-16T08:23:02.586Z,945.3
2022-11-16T08:24:04.397Z,945.3
2022-11-16T08:25:05.974Z,945.3
2022-11-16T08:26:07.713Z,945.3
2022-11-16T08:27:09.344Z,945.3
2022-11-16T08:28:10.993Z,945.3
2022-11-16T08:29:12.729Z,945.2
2022-11-16T08:30:14.390Z,945.2
2022-11-16T08:31:16.095Z,945.2
2022-11-16T08:32:17.836Z,945.2
2022-11-16T08:33:19.435Z,945.2
2022-11-16T08:34:21.005Z,945.2
2022-11-16T08:35:22.910Z,945.2
2022-11-16T08:36:24.816Z,945.2
2022-11-16T08:37:26.508Z,945.2
2022-11-16T08:38:28.344Z,945.2
2022-11-16T08:39:30.050Z,945.2
2022-11-16T08:40:31.652Z,945.2
2022-11-16T08:41:33.346Z,945.1
2022-11-16T08:42:44.208Z,945.1
2022-11-16T08:43:45.991Z,945.1
2022-11-16T08:44:47.641Z,945.1
2022-11-16T08:45:49.183Z,945
2022-11-16T08:46:50.934Z,945.1
2022-11-16T08:48:04.615Z,945.1
2022-11-16T08:49:06.402Z,945.1
2022-11-16T08:50:08.028Z,945.1
2022-11-16T08:51:20.697Z,945
2022-11-16T08:52:23.033Z,945.1
2022-11-16T08:53:24.680Z,945
2022-11-16T08:54:26.305Z,945
2022-11-16T08:55:28.008Z,945.1
2022-11-16T08:56:29.733Z,945
2022-11-16T08:57:31.557Z,945
2022-11-16T08:58:34.483Z,945.1
2022-11-16T08:59:36.787Z,945.1
2022-11-16T09:00:38.454Z,945.1
2022-11-16T09:01:40.143Z,945.1
2022-11-16T09:02:42.028Z,945.1
2022-11-16T09:03:43.636Z,945.1
2022-11-16T09:04:45.449Z,945.1
2022-11-16T09:05:47.161Z,945.1
2022-11-16T09:06:49.371Z,945
2022-11-16T09:07:51.277Z,945
2022-11-16T09:08:53.021Z,945
2022-11-16T09:09:54.666Z,945
2022-11-16T09:10:56.244Z,945
2022-11-16T09:11:57.933Z,945
2022-11-16T09:12:59.806Z,945
2022-11-16T09:14:01.480Z,945.1
2022-11-16T09:15:03.132Z,945.1
2022-11-16T09:16:04.710Z,945.1
2022-11-16T09:17:06.269Z,945
2022-11-16T09:18:08.139Z,944.9
2022-11-16T09:19:09.890Z,944.9
2022-11-16T09:20:11.635Z,944.9
2022-11-16T09:21:13.385Z,944.9
2022-11-16T09:22:15.348Z,944.9
2022-11-16T09:23:26.084Z,944.9
2022-11-16T09:24:27.897Z,944.8
2022-11-16T09:25:29.620Z,944.8
2022-11-16T09:26:31.805Z,944.8
2022-11-16T09:27:33.490Z,944.7
2022-11-16T09:28:36.459Z,944.7
2022-11-16T09:29:38.832Z,944.7
2022-11-16T09:30:40.699Z,944.7
2022-11-16T09:31:42.547Z,944.7
2022-11-16T09:32:44.488Z,944.6
2022-11-16T09:33:46.321Z,944.6
2022-11-16T09:34:47.987Z,944.5
2022-11-16T09:35:49.722Z,944.5
2022-11-16T09:36:51.388Z,944.5
2022-11-16T09:37:53.446Z,944.5
2022-11-16T09:39:32.192Z,944.5
2022-11-16T09:40:34.206Z,944.4
2022-11-16T09:41:35.928Z,944.4
2022-11-16T09:42:37.500Z,944.3
2022-11-16T09:43:47.427Z,944.4
2022-11-16T09:44:49.377Z,944.3
2022-11-16T09:45:51.000Z,944.2
2022-11-16T09:46:52.590Z,944.2
2022-11-16T09:47:54.223Z,944.3
2022-11-16T09:48:55.999Z,944.2
2022-11-16T09:50:04.479Z,944.2
2022-11-16T09:51:06.222Z,944.2
2022-11-16T09:52:07.950Z,944.2
2022-11-16T09:53:10.053Z,944.2
2022-11-16T09:54:11.897Z,944.2
2022-11-16T09:55:16.538Z,944.2
2022-11-16T09:56:23.047Z,944.2
2022-11-16T09:57:24.910Z,944.1
2022-11-16T09:58:26.459Z,944.1
2022-11-16T09:59:28.284Z,944.1
2022-11-16T10:00:30.377Z,944.2
2022-11-16T10:01:32.290Z,944.2
2022-11-16T10:02:34.143Z,944.1
2022-11-16T10:03:36.740Z,944.1
2022-11-16T10:04:38.891Z,944
2022-11-16T10:05:40.590Z,943.9
2022-11-16T10:06:42.429Z,943.9
2022-11-16T10:07:44.135Z,943.9
2022-11-16T10:08:45.985Z,943.9
2022-11-16T10:09:47.908Z,944
2022-11-16T10:10:49.663Z,943.9
2022-11-16T10:11:51.379Z,944
2022-11-16T10:12:53.179Z,943.9
2022-11-16T10:13:55.719Z,943.9
2022-11-16T10:15:05.220Z,943.8
2022-11-16T10:16:07.103Z,943.8
2022-11-16T10:17:08.822Z,943.8
2022-11-16T10:18:10.407Z,943.8
2022-11-16T10:19:12.245Z,943.7
2022-11-16T10:20:14.200Z,943.7
2022-11-16T10:21:16.057Z,943.7
2022-11-16T10:22:17.757Z,943.7
2022-11-16T10:23:19.497Z,943.7
2022-11-16T10:24:21.541Z,943.6
2022-11-16T10:25:23.283Z,943.6
2022-11-16T10:26:24.997Z,943.6
2022-11-16T10:27:26.663Z,943.5
2022-11-16T10:28:28.383Z,943.5
2022-11-16T10:29:30.153Z,943.5
2022-11-16T10:30:31.900Z,943.5
2022-11-16T10:31:33.641Z,943.4
2022-11-16T10:32:35.265Z,943.5
2022-11-16T10:33:38.021Z,943.5
2022-11-16T10:34:39.835Z,943.5
2022-11-16T10:35:41.652Z,943.4
2022-11-16T10:36:43.267Z,943.4
2022-11-16T10:37:45.025Z,943.4
2022-11-16T10:38:46.608Z,943.4
2022-11-16T10:39:48.549Z,943.4
2022-11-16T10:40:50.392Z,943.3
2022-11-16T10:41:51.985Z,943.3
2022-11-16T10:42:53.794Z,943.3
2022-11-16T10:43:55.500Z,943.4
2022-11-16T10:44:57.063Z,943.3
2022-11-16T10:45:58.685Z,943.3
2022-11-16T10:47:00.562Z,943.3
2022-11-16T10:48:02.310Z,943.3
2022-11-16T10:49:04.152Z,943.4
2022-11-16T10:50:05.753Z,943.3
2022-11-16T10:51:07.360Z,943.2
2022-11-16T10:52:09.007Z,943.3
2022-11-16T10:53:10.653Z,943.3
2022-11-16T10:54:12.510Z,943.2
2022-11-16T10:55:14.447Z,943.2
2022-11-16T10:56:16.140Z,943.2
2022-11-16T10:57:17.932Z,943.2
2022-11-16T10:58:19.681Z,943.2
2022-11-16T10:59:22.047Z,943.2
2022-11-16T11:00:23.984Z,943.2
2022-11-16T11:01:25.892Z,943.2
2022-11-16T11:02:27.798Z,943.1
2022-11-16T11:03:29.480Z,943.1
2022-11-16T11:04:31.018Z,943.1
2022-11-16T11:05:32.628Z,943
2022-11-16T11:06:34.285Z,943.1
2022-11-16T11:07:36.341Z,943
2022-11-16T11:08:38.174Z,943
2022-11-16T11:09:39.990Z,943
2022-11-16T11:10:42.009Z,943.1
2022-11-16T11:11:43.856Z,943
2022-11-16T11:12:45.594Z,942.9
2022-11-16T11:13:47.258Z,942.9
2022-11-16T11:14:48.950Z,942.9
2022-11-16T11:15:50.580Z,942.9
2022-11-16T11:16:52.138Z,942.9
2022-11-16T11:17:53.829Z,942.8
2022-11-16T11:18:55.385Z,942.8
2022-11-16T11:19:57.203Z,942.8
2022-11-16T11:20:58.758Z,942.8
2022-11-16T11:22:00.504Z,942.8
2022-11-16T11:23:02.054Z,942.7
2022-11-16T11:24:45.740Z,942.7
2022-11-16T11:25:47.945Z,942.7
2022-11-16T11:26:49.874Z,942.7
2022-11-16T11:27:51.529Z,942.7
2022-11-16T11:28:53.186Z,942.7
2022-11-16T11:29:55.017Z,942.7
2022-11-16T11:30:56.679Z,942.7
2022-11-16T11:31:58.509Z,942.6
2022-11-16T11:33:00.295Z,942.5
2022-11-16T11:34:02.021Z,942.5
2022-11-16T11:35:03.856Z,942.4
2022-11-16T11:36:05.420Z,942.4
2022-11-16T11:37:07.172Z,942.5
2022-11-16T11:38:09.010Z,942.5
2022-11-16T11:39:10.864Z,942.5
2022-11-16T11:40:12.602Z,942.4
2022-11-16T11:41:14.602Z,942.4
2022-11-16T11:42:16.462Z,942.5
2022-11-16T11:43:19.398Z,942.5
2022-11-16T11:44:21.060Z,942.5
2022-11-16T11:45:23.382Z,942.5
2022-11-16T11:47:59.524Z,942.5
2022-11-16T11:49:04.882Z,942.4
2022-11-16T11:50:06.499Z,942.5
2022-11-16T11:51:08.120Z,942.4
2022-11-16T11:52:09.706Z,942.4
2022-11-16T11:53:11.326Z,942.4
2022-11-16T11:54:13.112Z,942.4
2022-11-16T11:55:15.033Z,942.3
2022-11-16T11:56:17.009Z,942.3
2022-11-16T11:57:18.784Z,942.3
2022-11-16T11:58:20.575Z,942.3
2022-11-16T11:59:22.180Z,942.2
2022-11-16T12:00:24.313Z,942.2
2022-11-16T12:01:26.397Z,942.2
2022-11-16T12:02:28.080Z,942.2
2022-11-16T12:03:29.711Z,942.2
2022-11-16T12:04:31.448Z,942.2
2022-11-16T12:05:33.246Z,942.2
2022-11-16T12:06:36.891Z,942.2
2022-11-16T12:07:45.333Z,942.2
2022-11-16T12:08:47.109Z,942.1
2022-11-16T12:09:48.871Z,942.1
2022-11-16T12:10:50.502Z,942.1
2022-11-16T12:11:52.332Z,942.1
2022-11-16T12:12:54.157Z,942.1
2022-11-16T12:13:56.127Z,942.1
2022-11-16T12:14:57.701Z,942.1
2022-11-16T12:15:59.427Z,942.1
2022-11-16T12:17:01.698Z,942
2022-11-16T12:18:03.446Z,942
2022-11-16T12:19:05.284Z,942
2022-11-16T12:20:06.972Z,942
2022-11-16T12:21:08.706Z,941.9
2022-11-16T12:22:10.300Z,942
2022-11-16T12:23:12.077Z,942
2022-11-16T12:24:13.684Z,942
2022-11-16T12:25:15.897Z,942
2022-11-16T12:26:17.751Z,941.9
2022-11-16T12:27:19.542Z,941.9
2022-11-16T12:28:21.490Z,941.9
2022-11-16T12:29:23.738Z,941.8
2022-11-16T12:30:25.443Z,941.8
2022-11-16T12:31:27.126Z,941.8
2022-11-16T12:32:28.941Z,941.9
2022-11-16T12:33:31.150Z,941.8
2022-11-16T12:34:33.411Z,941.8
2022-11-16T12:35:35.185Z,941.8
2022-11-16T12:36:36.932Z,941.8
2022-11-16T12:37:38.558Z,941.8
2022-11-16T12:38:40.108Z,941.7
2022-11-16T12:39:41.784Z,941.7
2022-11-16T12:40:43.700Z,941.7
2022-11-16T12:41:45.378Z,941.7
2022-11-16T12:42:47.223Z,941.7
2022-11-16T12:43:49.077Z,941.7
2022-11-16T12:44:50.810Z,941.6
2022-11-16T12:45:52.375Z,941.6
2022-11-16T12:46:54.117Z,941.6
2022-11-16T12:47:55.676Z,941.6
2022-11-16T12:48:57.308Z,941.6
2022-11-16T12:49:59.033Z,941.6
2022-11-16T12:51:00.791Z,941.6
2022-11-16T12:52:02.553Z,941.6
2022-11-16T12:53:04.378Z,941.6
2022-11-16T12:54:06.060Z,941.6
2022-11-16T12:55:37.907Z,941.6
2022-11-16T12:56:44.596Z,941.5
2022-11-16T12:57:51.110Z,941.5
2022-11-16T12:58:52.893Z,941.5
2022-11-16T12:59:54.679Z,941.5
2022-11-16T13:00:56.572Z,941.5
2022-11-16T13:02:01.177Z,941.5
2022-11-16T13:03:02.847Z,941.5
2022-11-16T13:04:04.409Z,941.5
2022-11-16T13:05:06.102Z,941.5
2022-11-16T13:06:07.850Z,941.6
2022-11-16T13:07:11.974Z,941.6
2022-11-16T13:08:13.835Z,941.5
2022-11-16T13:09:15.446Z,941.5
2022-11-16T13:10:17.114Z,941.5
2022-11-16T13:11:19.046Z,941.5
2022-11-16T13:12:21.103Z,941.5
2022-11-16T13:13:37.611Z,941.5
2022-11-16T13:14:39.361Z,941.5
2022-11-16T13:15:41.327Z,941.4
2022-11-16T13:16:42.940Z,941.5
2022-11-16T13:17:44.606Z,941.5
2022-11-16T13:18:46.233Z,941.5
2022-11-16T13:19:47.892Z,941.5
2022-11-16T13:20:49.536Z,941.5
2022-11-16T13:21:51.077Z,941.4
2022-11-16T13:22:55.321Z,941.4
2022-11-16T13:23:56.913Z,941.3
2022-11-16T13:24:58.594Z,941.4
2022-11-16T13:26:00.406Z,941.4
2022-11-16T13:27:02.154Z,941.5